sensor_id;sensor_type;location;lat;lon;timestamp;temperature;humidity
64796;DHT22;51229;51.980;6.722;2022-08-23T00:01:57;20.60;74.60
64796;DHT22;51229;51.980;6.722;2022-08-23T00:04:32;20.60;74.70
64796;DHT22;51229;51.980;6.722;2022-08-23T00:06:59;20.60;74.70
64796;DHT22;51229;51.980;6.722;2022-08-23T00:09:26;20.60;74.70
64796;DHT22;51229;51.980;6.722;2022-08-23T00:12:04;20.50;74.70
64796;DHT22;51229;51.980;6.722;2022-08-23T00:14:33;20.50;74.90
64796;DHT22;51229;51.980;6.722;2022-08-23T00:16:59;20.50;75.00
64796;DHT22;51229;51.980;6.722;2022-08-23T00:19:26;20.40;74.80
64796;DHT22;51229;51.980;6.722;2022-08-23T00:21:53;20.40;75.20
64796;DHT22;51229;51.980;6.722;2022-08-23T00:24:20;20.30;75.30
64796;DHT22;51229;51.980;6.722;2022-08-23T00:27:00;20.20;75.30
64796;DHT22;51229;51.980;6.722;2022-08-23T00:29:36;20.30;75.40
64796;DHT22;51229;51.980;6.722;2022-08-23T00:32:03;20.20;75.80
64796;DHT22;51229;51.980;6.722;2022-08-23T00:34:28;20.00;78.90
64796;DHT22;51229;51.980;6.722;2022-08-23T00:36:55;19.80;76.60
64796;DHT22;51229;51.980;6.722;2022-08-23T00:39:22;19.90;76.60
64796;DHT22;51229;51.980;6.722;2022-08-23T00:41:49;19.90;76.30
64796;DHT22;51229;51.980;6.722;2022-08-23T00:44:20;20.00;76.20
64796;DHT22;51229;51.980;6.722;2022-08-23T00:47:05;20.00;76.10
64796;DHT22;51229;51.980;6.722;2022-08-23T00:49:56;20.00;76.00
64796;DHT22;51229;51.980;6.722;2022-08-23T00:52:34;20.00;76.10
64796;DHT22;51229;51.980;6.722;2022-08-23T00:55:03;19.90;76.10
64796;DHT22;51229;51.980;6.722;2022-08-23T00:57:30;19.90;76.10
64796;DHT22;51229;51.980;6.722;2022-08-23T00:59:57;19.90;76.20
64796;DHT22;51229;51.980;6.722;2022-08-23T01:02:23;19.80;76.20
64796;DHT22;51229;51.980;6.722;2022-08-23T01:04:57;19.80;76.00
64796;DHT22;51229;51.980;6.722;2022-08-23T01:10:32;19.80;76.20
64796;DHT22;51229;51.980;6.722;2022-08-23T01:13:23;19.70;76.30
64796;DHT22;51229;51.980;6.722;2022-08-23T01:15:56;19.70;76.40
64796;DHT22;51229;51.980;6.722;2022-08-23T01:18:27;19.70;76.40
64796;DHT22;51229;51.980;6.722;2022-08-23T01:23:54;19.60;76.50
64796;DHT22;51229;51.980;6.722;2022-08-23T01:26:22;19.60;76.60
64796;DHT22;51229;51.980;6.722;2022-08-23T01:28:50;19.50;76.60
64796;DHT22;51229;51.980;6.722;2022-08-23T01:31:16;19.50;76.70
64796;DHT22;51229;51.980;6.722;2022-08-23T01:33:46;19.50;76.70
64796;DHT22;51229;51.980;6.722;2022-08-23T01:36:14;19.40;76.80
64796;DHT22;51229;51.980;6.722;2022-08-23T01:38:41;19.40;76.70
64796;DHT22;51229;51.980;6.722;2022-08-23T01:41:07;19.40;76.80
64796;DHT22;51229;51.980;6.722;2022-08-23T01:43:34;19.40;76.90
64796;DHT22;51229;51.980;6.722;2022-08-23T01:46:27;19.40;76.90
64796;DHT22;51229;51.980;6.722;2022-08-23T01:48:54;19.30;77.00
64796;DHT22;51229;51.980;6.722;2022-08-23T01:51:21;19.30;77.00
64796;DHT22;51229;51.980;6.722;2022-08-23T01:53:50;19.20;77.00
64796;DHT22;51229;51.980;6.722;2022-08-23T01:56:17;19.20;77.10
64796;DHT22;51229;51.980;6.722;2022-08-23T01:58:47;19.20;77.20
64796;DHT22;51229;51.980;6.722;2022-08-23T02:01:14;19.20;77.20
64796;DHT22;51229;51.980;6.722;2022-08-23T02:03:39;19.10;77.30
64796;DHT22;51229;51.980;6.722;2022-08-23T02:06:05;19.10;77.40
64796;DHT22;51229;51.980;6.722;2022-08-23T02:08:31;19.00;77.30
64796;DHT22;51229;51.980;6.722;2022-08-23T02:11:21;19.10;77.40
64796;DHT22;51229;51.980;6.722;2022-08-23T02:13:50;19.00;77.40
64796;DHT22;51229;51.980;6.722;2022-08-23T02:16:28;19.00;77.50
64796;DHT22;51229;51.980;6.722;2022-08-23T02:18:55;18.90;77.50
64796;DHT22;51229;51.980;6.722;2022-08-23T02:21:22;18.90;77.60
64796;DHT22;51229;51.980;6.722;2022-08-23T02:23:48;18.90;77.60
64796;DHT22;51229;51.980;6.722;2022-08-23T02:26:14;18.90;77.70
64796;DHT22;51229;51.980;6.722;2022-08-23T02:28:43;18.80;77.80
64796;DHT22;51229;51.980;6.722;2022-08-23T02:31:09;18.80;77.90
64796;DHT22;51229;51.980;6.722;2022-08-23T02:33:35;18.80;77.90
64796;DHT22;51229;51.980;6.722;2022-08-23T02:36:01;18.70;77.90
64796;DHT22;51229;51.980;6.722;2022-08-23T02:38:27;18.70;78.00
64796;DHT22;51229;51.980;6.722;2022-08-23T02:40:53;18.70;78.20
64796;DHT22;51229;51.980;6.722;2022-08-23T02:43:19;18.70;78.10
64796;DHT22;51229;51.980;6.722;2022-08-23T02:45:45;18.60;78.10
64796;DHT22;51229;51.980;6.722;2022-08-23T02:48:12;18.60;78.20
64796;DHT22;51229;51.980;6.722;2022-08-23T02:50:48;18.60;78.20
64796;DHT22;51229;51.980;6.722;2022-08-23T02:53:15;18.50;78.30
64796;DHT22;51229;51.980;6.722;2022-08-23T02:55:48;18.50;78.40
64796;DHT22;51229;51.980;6.722;2022-08-23T02:58:13;18.50;78.30
64796;DHT22;51229;51.980;6.722;2022-08-23T03:00:39;18.40;78.40
64796;DHT22;51229;51.980;6.722;2022-08-23T03:03:05;18.40;78.50
64796;DHT22;51229;51.980;6.722;2022-08-23T03:05:31;18.40;78.50
64796;DHT22;51229;51.980;6.722;2022-08-23T03:07:58;18.40;78.40
64796;DHT22;51229;51.980;6.722;2022-08-23T03:10:24;18.40;78.30
64796;DHT22;51229;51.980;6.722;2022-08-23T03:12:58;18.30;78.30
64796;DHT22;51229;51.980;6.722;2022-08-23T03:15:24;18.30;78.50
64796;DHT22;51229;51.980;6.722;2022-08-23T03:17:50;18.30;78.70
64796;DHT22;51229;51.980;6.722;2022-08-23T03:20:16;18.30;78.80
64796;DHT22;51229;51.980;6.722;2022-08-23T03:22:42;18.30;78.70
64796;DHT22;51229;51.980;6.722;2022-08-23T03:25:08;18.20;78.80
64796;DHT22;51229;51.980;6.722;2022-08-23T03:27:50;18.20;78.80
64796;DHT22;51229;51.980;6.722;2022-08-23T03:30:16;18.20;78.90
64796;DHT22;51229;51.980;6.722;2022-08-23T03:32:42;18.20;78.90
64796;DHT22;51229;51.980;6.722;2022-08-23T03:35:09;18.10;78.90
64796;DHT22;51229;51.980;6.722;2022-08-23T03:37:35;18.10;78.90
64796;DHT22;51229;51.980;6.722;2022-08-23T03:40:02;18.10;79.10
64796;DHT22;51229;51.980;6.722;2022-08-23T03:42:29;18.10;79.10
64796;DHT22;51229;51.980;6.722;2022-08-23T03:44:55;18.00;79.20
64796;DHT22;51229;51.980;6.722;2022-08-23T03:47:20;18.00;79.20
64796;DHT22;51229;51.980;6.722;2022-08-23T03:49:47;17.90;79.30
64796;DHT22;51229;51.980;6.722;2022-08-23T03:52:12;17.90;79.50
64796;DHT22;51229;51.980;6.722;2022-08-23T03:54:38;17.90;79.40
64796;DHT22;51229;51.980;6.722;2022-08-23T03:57:08;17.90;79.60
64796;DHT22;51229;51.980;6.722;2022-08-23T03:59:37;17.80;79.70
64796;DHT22;51229;51.980;6.722;2022-08-23T04:02:06;17.80;79.80
64796;DHT22;51229;51.980;6.722;2022-08-23T04:04:32;17.80;79.80
64796;DHT22;51229;51.980;6.722;2022-08-23T04:07:20;17.80;79.90
64796;DHT22;51229;51.980;6.722;2022-08-23T04:09:47;17.70;79.90
64796;DHT22;51229;51.980;6.722;2022-08-23T04:12:13;17.70;80.10
64796;DHT22;51229;51.980;6.722;2022-08-23T04:14:39;17.70;80.10
64796;DHT22;51229;51.980;6.722;2022-08-23T04:17:05;17.60;79.90
64796;DHT22;51229;51.980;6.722;2022-08-23T04:19:31;17.60;80.10
64796;DHT22;51229;51.980;6.722;2022-08-23T04:22:00;17.60;80.20
64796;DHT22;51229;51.980;6.722;2022-08-23T04:24:32;17.60;80.30
64796;DHT22;51229;51.980;6.722;2022-08-23T04:26:58;17.60;80.30
64796;DHT22;51229;51.980;6.722;2022-08-23T04:29:24;17.50;80.40
64796;DHT22;51229;51.980;6.722;2022-08-23T04:31:51;17.50;80.40
64796;DHT22;51229;51.980;6.722;2022-08-23T04:34:16;17.50;80.40
64796;DHT22;51229;51.980;6.722;2022-08-23T04:36:42;17.40;80.70
64796;DHT22;51229;51.980;6.722;2022-08-23T04:39:09;17.40;80.80
64796;DHT22;51229;51.980;6.722;2022-08-23T04:41:36;17.40;80.80
64796;DHT22;51229;51.980;6.722;2022-08-23T04:44:20;17.40;81.50
64796;DHT22;51229;51.980;6.722;2022-08-23T04:46:48;17.30;80.90
64796;DHT22;51229;51.980;6.722;2022-08-23T04:49:15;17.40;80.80
64796;DHT22;51229;51.980;6.722;2022-08-23T04:51:41;17.30;80.80
64796;DHT22;51229;51.980;6.722;2022-08-23T04:54:07;17.40;80.80
64796;DHT22;51229;51.980;6.722;2022-08-23T04:56:51;17.20;81.70
64796;DHT22;51229;51.980;6.722;2022-08-23T04:59:17;17.30;82.00
64796;DHT22;51229;51.980;6.722;2022-08-23T05:01:44;17.30;81.90
64796;DHT22;51229;51.980;6.722;2022-08-23T05:04:12;17.30;81.70
64796;DHT22;51229;51.980;6.722;2022-08-23T05:06:39;17.30;81.60
64796;DHT22;51229;51.980;6.722;2022-08-23T05:09:05;17.30;81.50
64796;DHT22;51229;51.980;6.722;2022-08-23T05:11:32;17.30;81.40
64796;DHT22;51229;51.980;6.722;2022-08-23T05:13:59;17.30;81.30
64796;DHT22;51229;51.980;6.722;2022-08-23T05:16:25;17.30;81.10
64796;DHT22;51229;51.980;6.722;2022-08-23T05:18:57;17.30;81.10
64796;DHT22;51229;51.980;6.722;2022-08-23T05:21:24;17.30;80.90
64796;DHT22;51229;51.980;6.722;2022-08-23T05:23:51;17.40;80.90
64796;DHT22;51229;51.980;6.722;2022-08-23T05:26:21;17.40;80.80
64796;DHT22;51229;51.980;6.722;2022-08-23T05:28:48;17.40;80.70
64796;DHT22;51229;51.980;6.722;2022-08-23T05:31:26;17.40;80.80
64796;DHT22;51229;51.980;6.722;2022-08-23T05:33:57;17.40;80.60
64796;DHT22;51229;51.980;6.722;2022-08-23T05:36:43;17.40;80.60
64796;DHT22;51229;51.980;6.722;2022-08-23T05:39:09;17.30;81.60
64796;DHT22;51229;51.980;6.722;2022-08-23T05:41:37;17.30;81.30
64796;DHT22;51229;51.980;6.722;2022-08-23T05:44:07;17.20;81.40
64796;DHT22;51229;51.980;6.722;2022-08-23T05:46:35;17.40;80.90
64796;DHT22;51229;51.980;6.722;2022-08-23T05:49:15;17.50;83.70
64796;DHT22;51229;51.980;6.722;2022-08-23T05:51:42;17.40;81.60
64796;DHT22;51229;51.980;6.722;2022-08-23T05:54:09;17.40;81.60
64796;DHT22;51229;51.980;6.722;2022-08-23T05:56:40;17.20;88.00
64796;DHT22;51229;51.980;6.722;2022-08-23T05:59:13;17.10;89.90
64796;DHT22;51229;51.980;6.722;2022-08-23T06:01:41;17.10;93.40
64796;DHT22;51229;51.980;6.722;2022-08-23T06:04:12;17.10;90.00
64796;DHT22;51229;51.980;6.722;2022-08-23T06:06:42;17.30;88.90
64796;DHT22;51229;51.980;6.722;2022-08-23T06:09:12;17.40;90.00
64796;DHT22;51229;51.980;6.722;2022-08-23T06:11:41;17.50;90.00
64796;DHT22;51229;51.980;6.722;2022-08-23T06:14:07;17.70;92.80
64796;DHT22;51229;51.980;6.722;2022-08-23T06:16:40;17.60;93.10
64796;DHT22;51229;51.980;6.722;2022-08-23T06:19:08;17.50;93.00
64796;DHT22;51229;51.980;6.722;2022-08-23T06:21:53;17.60;91.10
64796;DHT22;51229;51.980;6.722;2022-08-23T06:24:26;17.90;87.90
64796;DHT22;51229;51.980;6.722;2022-08-23T06:27:05;18.40;85.30
64796;DHT22;51229;51.980;6.722;2022-08-23T06:29:32;18.50;90.40
64796;DHT22;51229;51.980;6.722;2022-08-23T06:32:16;18.60;89.60
64796;DHT22;51229;51.980;6.722;2022-08-23T06:35:05;18.90;81.90
64796;DHT22;51229;51.980;6.722;2022-08-23T06:37:50;18.90;86.60
64796;DHT22;51229;51.980;6.722;2022-08-23T06:40:34;19.30;84.20
64796;DHT22;51229;51.980;6.722;2022-08-23T06:43:26;19.40;78.90
64796;DHT22;51229;51.980;6.722;2022-08-23T06:46:16;19.70;81.20
64796;DHT22;51229;51.980;6.722;2022-08-23T06:48:44;19.60;85.80
64796;DHT22;51229;51.980;6.722;2022-08-23T06:51:20;19.80;79.40
64796;DHT22;51229;51.980;6.722;2022-08-23T06:54:11;20.10;81.80
64796;DHT22;51229;51.980;6.722;2022-08-23T06:57:06;20.10;78.60
64796;DHT22;51229;51.980;6.722;2022-08-23T06:59:48;20.40;76.50
64796;DHT22;51229;51.980;6.722;2022-08-23T07:02:31;20.10;84.00
64796;DHT22;51229;51.980;6.722;2022-08-23T07:04:57;19.80;83.20
64796;DHT22;51229;51.980;6.722;2022-08-23T07:07:50;19.90;80.20
64796;DHT22;51229;51.980;6.722;2022-08-23T07:10:17;20.30;81.90
64796;DHT22;51229;51.980;6.722;2022-08-23T07:12:43;20.80;81.90
64796;DHT22;51229;51.980;6.722;2022-08-23T07:15:10;21.10;75.10
64796;DHT22;51229;51.980;6.722;2022-08-23T07:17:38;21.40;81.60
64796;DHT22;51229;51.980;6.722;2022-08-23T07:20:04;21.40;80.70
64796;DHT22;51229;51.980;6.722;2022-08-23T07:22:32;21.20;81.40
64796;DHT22;51229;51.980;6.722;2022-08-23T07:24:58;21.30;79.10
64796;DHT22;51229;51.980;6.722;2022-08-23T07:27:24;21.10;80.20
64796;DHT22;51229;51.980;6.722;2022-08-23T07:29:59;21.50;78.60
64796;DHT22;51229;51.980;6.722;2022-08-23T07:32:25;22.20;77.20
64796;DHT22;51229;51.980;6.722;2022-08-23T07:34:53;22.40;75.10
64796;DHT22;51229;51.980;6.722;2022-08-23T07:37:20;22.60;73.10
64796;DHT22;51229;51.980;6.722;2022-08-23T07:39:45;23.10;75.50
64796;DHT22;51229;51.980;6.722;2022-08-23T07:42:12;22.90;76.20
64796;DHT22;51229;51.980;6.722;2022-08-23T07:44:37;23.00;75.80
64796;DHT22;51229;51.980;6.722;2022-08-23T07:47:03;23.50;74.50
64796;DHT22;51229;51.980;6.722;2022-08-23T07:49:30;23.70;74.10
64796;DHT22;51229;51.980;6.722;2022-08-23T07:51:57;23.80;72.60
64796;DHT22;51229;51.980;6.722;2022-08-23T07:54:23;24.50;70.90
64796;DHT22;51229;51.980;6.722;2022-08-23T07:57:22;24.30;72.70
64796;DHT22;51229;51.980;6.722;2022-08-23T07:59:59;24.10;71.70
64796;DHT22;51229;51.980;6.722;2022-08-23T08:02:48;24.60;71.20
64796;DHT22;51229;51.980;6.722;2022-08-23T08:05:22;24.30;71.80
64796;DHT22;51229;51.980;6.722;2022-08-23T08:07:49;24.90;69.70
64796;DHT22;51229;51.980;6.722;2022-08-23T08:10:14;25.00;68.60
64796;DHT22;51229;51.980;6.722;2022-08-23T08:12:40;25.70;67.00
64796;DHT22;51229;51.980;6.722;2022-08-23T08:15:16;26.20;66.80
64796;DHT22;51229;51.980;6.722;2022-08-23T08:17:46;26.20;66.30
64796;DHT22;51229;51.980;6.722;2022-08-23T08:20:13;26.50;65.70
64796;DHT22;51229;51.980;6.722;2022-08-23T08:23:17;26.90;64.80
64796;DHT22;51229;51.980;6.722;2022-08-23T08:26:04;27.00;64.50
64796;DHT22;51229;51.980;6.722;2022-08-23T08:28:31;27.40;63.80
64796;DHT22;51229;51.980;6.722;2022-08-23T08:30:57;27.70;63.70
64796;DHT22;51229;51.980;6.722;2022-08-23T08:33:27;27.70;63.00
64796;DHT22;51229;51.980;6.722;2022-08-23T08:35:54;27.40;64.10
64796;DHT22;51229;51.980;6.722;2022-08-23T08:38:20;27.90;63.60
64796;DHT22;51229;51.980;6.722;2022-08-23T08:40:49;28.40;62.70
64796;DHT22;51229;51.980;6.722;2022-08-23T08:43:24;28.10;63.10
64796;DHT22;51229;51.980;6.722;2022-08-23T08:46:04;28.00;63.20
64796;DHT22;51229;51.980;6.722;2022-08-23T08:48:42;28.20;63.20
64796;DHT22;51229;51.980;6.722;2022-08-23T08:53:57;29.10;60.40
64796;DHT22;51229;51.980;6.722;2022-08-23T08:56:37;29.80;58.00
64796;DHT22;51229;51.980;6.722;2022-08-23T08:59:27;29.20;60.00
64796;DHT22;51229;51.980;6.722;2022-08-23T09:01:54;29.70;58.70
64796;DHT22;51229;51.980;6.722;2022-08-23T09:04:35;29.90;61.10
64796;DHT22;51229;51.980;6.722;2022-08-23T09:07:23;30.20;60.90
64796;DHT22;51229;51.980;6.722;2022-08-23T09:19:04;30.40;61.60
64796;DHT22;51229;51.980;6.722;2022-08-23T09:21:39;31.40;59.40
64796;DHT22;51229;51.980;6.722;2022-08-23T09:24:08;32.10;58.70
64796;DHT22;51229;51.980;6.722;2022-08-23T09:26:58;32.20;59.20
64796;DHT22;51229;51.980;6.722;2022-08-23T09:29:28;32.00;59.30
64796;DHT22;51229;51.980;6.722;2022-08-23T09:31:57;31.90;59.60
64796;DHT22;51229;51.980;6.722;2022-08-23T09:37:22;32.40;52.10
64796;DHT22;51229;51.980;6.722;2022-08-23T09:42:38;32.80;57.60
64796;DHT22;51229;51.980;6.722;2022-08-23T09:45:27;33.20;57.90
64796;DHT22;51229;51.980;6.722;2022-08-23T09:47:53;34.00;56.30
64796;DHT22;51229;51.980;6.722;2022-08-23T09:50:23;34.30;50.10
64796;DHT22;51229;51.980;6.722;2022-08-23T09:52:58;32.70;50.20
64796;DHT22;51229;51.980;6.722;2022-08-23T09:55:47;32.80;50.20
64796;DHT22;51229;51.980;6.722;2022-08-23T10:03:33;34.10;48.00
64796;DHT22;51229;51.980;6.722;2022-08-23T10:06:11;33.50;52.20
64796;DHT22;51229;51.980;6.722;2022-08-23T10:08:52;33.20;48.90
64796;DHT22;51229;51.980;6.722;2022-08-23T10:11:25;33.80;52.90
64796;DHT22;51229;51.980;6.722;2022-08-23T10:13:52;33.30;57.20
64796;DHT22;51229;51.980;6.722;2022-08-23T10:16:39;34.60;48.10
64796;DHT22;51229;51.980;6.722;2022-08-23T10:19:27;34.20;47.70
64796;DHT22;51229;51.980;6.722;2022-08-23T10:22:12;33.40;49.50
64796;DHT22;51229;51.980;6.722;2022-08-23T10:24:56;34.20;54.60
64796;DHT22;51229;51.980;6.722;2022-08-23T10:31:12;34.00;46.50
64796;DHT22;51229;51.980;6.722;2022-08-23T10:39:26;32.20;49.40
64796;DHT22;51229;51.980;6.722;2022-08-23T10:42:04;32.30;55.60
64796;DHT22;51229;51.980;6.722;2022-08-23T10:44:38;34.30;47.10
64796;DHT22;51229;51.980;6.722;2022-08-23T10:47:09;35.40;50.50
64796;DHT22;51229;51.980;6.722;2022-08-23T10:49:40;35.50;46.90
64796;DHT22;51229;51.980;6.722;2022-08-23T10:52:09;35.00;46.20
64796;DHT22;51229;51.980;6.722;2022-08-23T10:54:45;35.10;47.80
64796;DHT22;51229;51.980;6.722;2022-08-23T10:57:35;34.70;44.90
64796;DHT22;51229;51.980;6.722;2022-08-23T11:00:08;33.60;49.50
64796;DHT22;51229;51.980;6.722;2022-08-23T11:05:23;34.60;45.30
64796;DHT22;51229;51.980;6.722;2022-08-23T11:08:01;34.30;49.60
64796;DHT22;51229;51.980;6.722;2022-08-23T11:13:04;33.10;55.20
64796;DHT22;51229;51.980;6.722;2022-08-23T11:18:34;35.40;54.10
64796;DHT22;51229;51.980;6.722;2022-08-23T11:21:09;34.10;45.40
64796;DHT22;51229;51.980;6.722;2022-08-23T11:24:28;33.90;49.00
64796;DHT22;51229;51.980;6.722;2022-08-23T11:32:10;36.10;46.80
64796;DHT22;51229;51.980;6.722;2022-08-23T11:34:43;36.30;44.00
64796;DHT22;51229;51.980;6.722;2022-08-23T11:45:28;38.00;43.10
64796;DHT22;51229;51.980;6.722;2022-08-23T11:48:13;36.30;47.40
64796;DHT22;51229;51.980;6.722;2022-08-23T11:50:45;34.60;46.60
64796;DHT22;51229;51.980;6.722;2022-08-23T12:01:43;34.10;57.00
64796;DHT22;51229;51.980;6.722;2022-08-23T12:04:25;36.50;53.80
64796;DHT22;51229;51.980;6.722;2022-08-23T12:06:53;36.80;50.70
64796;DHT22;51229;51.980;6.722;2022-08-23T12:19:39;34.60;55.30
64796;DHT22;51229;51.980;6.722;2022-08-23T12:22:18;36.10;48.60
64796;DHT22;51229;51.980;6.722;2022-08-23T12:29:53;33.90;54.10
64796;DHT22;51229;51.980;6.722;2022-08-23T12:35:05;34.40;50.10
64796;DHT22;51229;51.980;6.722;2022-08-23T12:38:01;34.00;56.40
64796;DHT22;51229;51.980;6.722;2022-08-23T12:40:35;33.70;54.50
64796;DHT22;51229;51.980;6.722;2022-08-23T12:43:07;33.80;55.60
64796;DHT22;51229;51.980;6.722;2022-08-23T12:45:41;34.10;54.70
64796;DHT22;51229;51.980;6.722;2022-08-23T12:48:09;34.40;52.30
64796;DHT22;51229;51.980;6.722;2022-08-23T12:50:39;35.10;44.50
64796;DHT22;51229;51.980;6.722;2022-08-23T12:53:11;33.00;48.30
64796;DHT22;51229;51.980;6.722;2022-08-23T12:55:45;34.20;49.70
64796;DHT22;51229;51.980;6.722;2022-08-23T12:58:13;32.70;47.60
64796;DHT22;51229;51.980;6.722;2022-08-23T13:00:55;33.20;49.80
64796;DHT22;51229;51.980;6.722;2022-08-23T13:03:43;32.40;56.90
64796;DHT22;51229;51.980;6.722;2022-08-23T13:06:13;33.70;53.70
64796;DHT22;51229;51.980;6.722;2022-08-23T13:08:50;33.40;48.10
64796;DHT22;51229;51.980;6.722;2022-08-23T13:11:20;33.80;52.40
64796;DHT22;51229;51.980;6.722;2022-08-23T13:13:46;35.30;52.90
64796;DHT22;51229;51.980;6.722;2022-08-23T13:24:39;34.70;54.70
64796;DHT22;51229;51.980;6.722;2022-08-23T13:29:58;34.10;50.90
64796;DHT22;51229;51.980;6.722;2022-08-23T13:35:30;36.00;53.30
64796;DHT22;51229;51.980;6.722;2022-08-23T13:46:21;36.00;50.30
64796;DHT22;51229;51.980;6.722;2022-08-23T13:53:54;33.50;54.40
64796;DHT22;51229;51.980;6.722;2022-08-23T13:56:19;34.20;54.50
64796;DHT22;51229;51.980;6.722;2022-08-23T13:58:55;32.70;53.30
64796;DHT22;51229;51.980;6.722;2022-08-23T14:01:23;33.00;48.70
64796;DHT22;51229;51.980;6.722;2022-08-23T14:03:49;32.90;56.60
64796;DHT22;51229;51.980;6.722;2022-08-23T14:06:14;32.80;56.50
64796;DHT22;51229;51.980;6.722;2022-08-23T14:08:40;33.40;55.70
64796;DHT22;51229;51.980;6.722;2022-08-23T14:11:06;33.10;55.80
64796;DHT22;51229;51.980;6.722;2022-08-23T14:13:33;34.20;55.60
64796;DHT22;51229;51.980;6.722;2022-08-23T14:16:04;35.10;54.20
64796;DHT22;51229;51.980;6.722;2022-08-23T14:18:31;35.60;53.70
64796;DHT22;51229;51.980;6.722;2022-08-23T14:20:57;35.50;53.60
64796;DHT22;51229;51.980;6.722;2022-08-23T14:23:23;34.80;53.80
64796;DHT22;51229;51.980;6.722;2022-08-23T14:25:52;34.70;53.70
64796;DHT22;51229;51.980;6.722;2022-08-23T14:28:25;34.70;51.00
64796;DHT22;51229;51.980;6.722;2022-08-23T14:30:51;33.10;50.80
64796;DHT22;51229;51.980;6.722;2022-08-23T14:33:16;33.00;51.40
64796;DHT22;51229;51.980;6.722;2022-08-23T14:35:44;32.40;47.80
64796;DHT22;51229;51.980;6.722;2022-08-23T14:38:09;31.90;56.70
64796;DHT22;51229;51.980;6.722;2022-08-23T14:40:36;31.70;52.10
64796;DHT22;51229;51.980;6.722;2022-08-23T14:43:03;32.40;55.50
64796;DHT22;51229;51.980;6.722;2022-08-23T14:45:29;33.20;54.70
64796;DHT22;51229;51.980;6.722;2022-08-23T14:47:55;33.40;54.90
64796;DHT22;51229;51.980;6.722;2022-08-23T14:50:20;33.50;55.00
64796;DHT22;51229;51.980;6.722;2022-08-23T14:52:47;32.30;45.60
64796;DHT22;51229;51.980;6.722;2022-08-23T14:55:13;32.10;51.20
64796;DHT22;51229;51.980;6.722;2022-08-23T14:57:39;31.60;54.30
64796;DHT22;51229;51.980;6.722;2022-08-23T15:00:06;31.90;56.50
64796;DHT22;51229;51.980;6.722;2022-08-23T15:02:33;31.80;55.10
64796;DHT22;51229;51.980;6.722;2022-08-23T15:05:01;31.60;51.00
64796;DHT22;51229;51.980;6.722;2022-08-23T15:07:27;30.10;57.10
64796;DHT22;51229;51.980;6.722;2022-08-23T15:09:53;30.70;58.00
64796;DHT22;51229;51.980;6.722;2022-08-23T15:12:19;32.00;54.80
64796;DHT22;51229;51.980;6.722;2022-08-23T15:14:45;32.40;56.30
64796;DHT22;51229;51.980;6.722;2022-08-23T15:17:11;30.30;48.90
64796;DHT22;51229;51.980;6.722;2022-08-23T15:19:37;31.10;50.50
64796;DHT22;51229;51.980;6.722;2022-08-23T15:22:02;30.80;49.30
64796;DHT22;51229;51.980;6.722;2022-08-23T15:24:28;30.90;50.70
64796;DHT22;51229;51.980;6.722;2022-08-23T15:26:55;31.60;58.10
64796;DHT22;51229;51.980;6.722;2022-08-23T15:29:25;32.30;57.50
64796;DHT22;51229;51.980;6.722;2022-08-23T15:31:52;32.40;57.20
64796;DHT22;51229;51.980;6.722;2022-08-23T15:34:18;32.20;57.60
64796;DHT22;51229;51.980;6.722;2022-08-23T15:36:44;30.80;54.00
64796;DHT22;51229;51.980;6.722;2022-08-23T15:39:09;30.90;58.70
64796;DHT22;51229;51.980;6.722;2022-08-23T15:41:35;31.40;57.50
64796;DHT22;51229;51.980;6.722;2022-08-23T15:44:01;31.60;58.10
64796;DHT22;51229;51.980;6.722;2022-08-23T15:46:27;31.90;52.00
64796;DHT22;51229;51.980;6.722;2022-08-23T15:51:18;31.70;58.30
64796;DHT22;51229;51.980;6.722;2022-08-23T15:53:45;31.80;57.50
64796;DHT22;51229;51.980;6.722;2022-08-23T15:56:19;30.80;55.70
64796;DHT22;51229;51.980;6.722;2022-08-23T15:58:46;30.40;54.10
64796;DHT22;51229;51.980;6.722;2022-08-23T16:01:12;30.40;54.40
64796;DHT22;51229;51.980;6.722;2022-08-23T16:03:39;30.50;53.10
64796;DHT22;51229;51.980;6.722;2022-08-23T16:06:10;30.20;60.10
64796;DHT22;51229;51.980;6.722;2022-08-23T16:08:38;31.10;58.40
64796;DHT22;51229;51.980;6.722;2022-08-23T16:11:06;31.50;53.80
64796;DHT22;51229;51.980;6.722;2022-08-23T16:13:44;30.90;59.60
64796;DHT22;51229;51.980;6.722;2022-08-23T16:16:18;30.70;59.20
64796;DHT22;51229;51.980;6.722;2022-08-23T16:18:44;30.60;59.50
64796;DHT22;51229;51.980;6.722;2022-08-23T16:21:10;30.70;58.00
64796;DHT22;51229;51.980;6.722;2022-08-23T16:23:36;30.90;57.70
64796;DHT22;51229;51.980;6.722;2022-08-23T16:26:07;31.00;55.70
64796;DHT22;51229;51.980;6.722;2022-08-23T16:28:34;31.10;59.40
64796;DHT22;51229;51.980;6.722;2022-08-23T16:30:59;30.80;58.90
64796;DHT22;51229;51.980;6.722;2022-08-23T16:33:25;30.90;57.10
64796;DHT22;51229;51.980;6.722;2022-08-23T16:35:51;30.70;58.00
64796;DHT22;51229;51.980;6.722;2022-08-23T16:38:16;30.60;59.00
64796;DHT22;51229;51.980;6.722;2022-08-23T16:40:42;30.60;58.80
64796;DHT22;51229;51.980;6.722;2022-08-23T16:43:08;29.50;60.00
64796;DHT22;51229;51.980;6.722;2022-08-23T16:45:33;30.10;60.20
64796;DHT22;51229;51.980;6.722;2022-08-23T16:47:59;30.10;59.60
64796;DHT22;51229;51.980;6.722;2022-08-23T16:50:25;30.30;59.70
64796;DHT22;51229;51.980;6.722;2022-08-23T16:52:51;30.50;58.90
64796;DHT22;51229;51.980;6.722;2022-08-23T16:55:16;30.30;56.80
64796;DHT22;51229;51.980;6.722;2022-08-23T16:57:42;29.60;55.30
64796;DHT22;51229;51.980;6.722;2022-08-23T17:00:09;29.70;60.70
64796;DHT22;51229;51.980;6.722;2022-08-23T17:02:39;30.10;60.30
64796;DHT22;51229;51.980;6.722;2022-08-23T17:05:08;29.90;60.30
64796;DHT22;51229;51.980;6.722;2022-08-23T17:07:34;30.00;59.70
64796;DHT22;51229;51.980;6.722;2022-08-23T17:10:00;30.00;59.80
64796;DHT22;51229;51.980;6.722;2022-08-23T17:12:25;30.00;60.30
64796;DHT22;51229;51.980;6.722;2022-08-23T17:14:51;29.70;57.60
64796;DHT22;51229;51.980;6.722;2022-08-23T17:17:19;29.20;61.20
64796;DHT22;51229;51.980;6.722;2022-08-23T17:19:44;29.50;60.80
64796;DHT22;51229;51.980;6.722;2022-08-23T17:22:10;29.80;60.20
64796;DHT22;51229;51.980;6.722;2022-08-23T17:24:36;29.70;60.60
64796;DHT22;51229;51.980;6.722;2022-08-23T17:27:02;29.40;58.50
64796;DHT22;51229;51.980;6.722;2022-08-23T17:29:28;28.80;61.90
64796;DHT22;51229;51.980;6.722;2022-08-23T17:31:53;29.20;61.10
64796;DHT22;51229;51.980;6.722;2022-08-23T17:34:19;29.40;60.90
64796;DHT22;51229;51.980;6.722;2022-08-23T17:36:48;29.40;60.70
64796;DHT22;51229;51.980;6.722;2022-08-23T17:39:16;29.10;57.00
64796;DHT22;51229;51.980;6.722;2022-08-23T17:41:42;28.90;60.60
64796;DHT22;51229;51.980;6.722;2022-08-23T17:44:08;29.10;61.40
64796;DHT22;51229;51.980;6.722;2022-08-23T17:46:36;29.20;61.00
64796;DHT22;51229;51.980;6.722;2022-08-23T17:49:03;29.20;60.80